Time;durP1;ratioP1;P1;durP2;ratioP2;P2;SDS_P1;SDS_P2;PMS_P1;PMS_P2;Temp;Humidity;BMP_temperature;BMP_pressure;BME280_temperature;BME280_humidity;BME280_pressure;Samples;Min_cycle;Max_cycle;Signal;HPM_P1;HPM_P2
2023/09/07 00:00:04;;;;;;;6.40;2.72;;;;;;;;;;4924610;29;20336;-85
2023/09/07 00:02:32;;;;;;;5.20;2.85;;;;;;;;;;4922761;29;20059;-85
2023/09/07 00:05:09;;;;;;;3.75;2.80;;;;;;;;;;4924828;29;20083;-85
2023/09/07 00:07:38;;;;;;;4.68;2.72;;;;;;;;;;4926627;29;20102;-85
2023/09/07 00:10:07;;;;;;;3.67;2.90;;;;;;;;;;4925008;28;20043;-85
2023/09/07 00:12:39;;;;;;;7.18;3.20;;;;;;;;;;4926271;29;20382;-85
2023/09/07 00:15:08;;;;;;;3.90;2.70;;;;;;;;;;4923598;29;20044;-85
2023/09/07 00:17:37;;;;;;;4.15;3.00;;;;;;;;;;4920997;29;20051;-85
2023/09/07 00:20:10;;;;;;;4.80;2.60;;;;;;;;;;4923318;28;20059;-85
2023/09/07 00:22:40;;;;;;;4.38;3.13;;;;;;;;;;4926088;29;20063;-85
2023/09/07 00:25:09;;;;;;;6.85;2.72;;;;;;;;;;4924440;29;20136;-84
2023/09/07 00:27:38;;;;;;;5.00;3.30;;;;;;;;;;4923579;29;20386;-85
2023/09/07 00:30:06;;;;;;;6.55;3.13;;;;;;;;;;4922685;29;20111;-85
2023/09/07 00:32:34;;;;;;;4.13;2.85;;;;;;;;;;4924387;29;20056;-85
2023/09/07 00:35:03;;;;;;;4.65;3.00;;;;;;;;;;4924383;29;20561;-85
2023/09/07 00:37:31;;;;;;;4.93;3.08;;;;;;;;;;4928095;29;20063;-85
2023/09/07 00:40:03;;;;;;;5.75;2.60;;;;;;;;;;4928984;29;20048;-84
2023/09/07 00:42:31;;;;;;;4.93;2.90;;;;;;;;;;4929006;29;20684;-84
2023/09/07 00:45:01;;;;;;;5.63;2.90;;;;;;;;;;4928388;29;20044;-84
2023/09/07 00:47:29;;;;;;;5.68;3.28;;;;;;;;;;4927441;29;20067;-85
2023/09/07 00:49:59;;;;;;;5.43;3.47;;;;;;;;;;4926381;28;20062;-84
2023/09/07 00:52:28;;;;;;;4.45;3.08;;;;;;;;;;4929142;29;20054;-84
2023/09/07 00:54:57;;;;;;;5.55;3.28;;;;;;;;;;4926529;29;20056;-84
2023/09/07 00:57:27;;;;;;;6.55;3.60;;;;;;;;;;4929641;29;20446;-84
2023/09/07 00:59:55;;;;;;;5.25;3.05;;;;;;;;;;4927908;28;20091;-84
2023/09/07 01:02:24;;;;;;;5.75;3.00;;;;;;;;;;4923221;29;20134;-84
2023/09/07 01:04:53;;;;;;;4.88;3.10;;;;;;;;;;4927130;29;20044;-84
2023/09/07 01:07:24;;;;;;;5.68;3.05;;;;;;;;;;4929867;29;20078;-85
2023/09/07 01:09:54;;;;;;;4.38;2.97;;;;;;;;;;4923870;28;20067;-84
2023/09/07 01:12:22;;;;;;;6.28;3.38;;;;;;;;;;4928307;29;20490;-84
2023/09/07 01:14:52;;;;;;;7.03;3.65;;;;;;;;;;4926255;29;20066;-85
2023/09/07 01:17:21;;;;;;;7.03;3.20;;;;;;;;;;4925692;29;20043;-84
2023/09/07 01:19:50;;;;;;;4.80;3.22;;;;;;;;;;4924135;28;20039;-84
2023/09/07 01:22:22;;;;;;;6.00;3.65;;;;;;;;;;4928075;29;20055;-84
2023/09/07 01:24:52;;;;;;;8.32;4.10;;;;;;;;;;4927312;29;20051;-84
2023/09/07 01:27:20;;;;;;;6.85;3.08;;;;;;;;;;4928144;29;20059;-84
2023/09/07 01:29:50;;;;;;;7.47;3.22;;;;;;;;;;4926567;29;20119;-84
2023/09/07 01:36:01;;;;;;;6.80;3.17;;;;;;;;;;4921614;29;20545;-84
2023/09/07 01:38:31;;;;;;;6.95;3.40;;;;;;;;;;4926324;29;20119;-84
2023/09/07 01:41:00;;;;;;;3.58;2.70;;;;;;;;;;4926082;28;20051;-85
2023/09/07 01:43:28;;;;;;;5.10;3.15;;;;;;;;;;4929478;29;20052;-85
2023/09/07 01:45:56;;;;;;;7.47;2.95;;;;;;;;;;4927429;29;20048;-84
2023/09/07 01:48:25;;;;;;;5.88;3.42;;;;;;;;;;4927418;29;20056;-84
2023/09/07 01:50:54;;;;;;;4.88;3.30;;;;;;;;;;4927344;29;20052;-84
2023/09/07 01:53:23;;;;;;;5.28;3.28;;;;;;;;;;4924363;29;20056;-85
2023/09/07 01:55:55;;;;;;;4.68;3.22;;;;;;;;;;4926608;29;20099;-84
2023/09/07 01:58:24;;;;;;;6.28;3.38;;;;;;;;;;4927907;29;20047;-84
2023/09/07 02:00:54;;;;;;;7.25;3.25;;;;;;;;;;4921041;28;20107;-84
2023/09/07 02:03:22;;;;;;;5.60;3.33;;;;;;;;;;4927019;29;20048;-84
2023/09/07 02:05:51;;;;;;;5.05;2.90;;;;;;;;;;4925462;29;20050;-84
2023/09/07 02:08:19;;;;;;;5.07;3.00;;;;;;;;;;4927674;29;20138;-84
2023/09/07 02:10:48;;;;;;;5.72;3.35;;;;;;;;;;4928083;28;20054;-84
2023/09/07 02:13:18;;;;;;;5.38;3.13;;;;;;;;;;4927115;29;20148;-84
2023/09/07 02:15:47;;;;;;;6.00;3.50;;;;;;;;;;4926075;29;20044;-84
2023/09/07 02:18:15;;;;;;;5.43;3.80;;;;;;;;;;4927731;29;20098;-84
2023/09/07 02:20:44;;;;;;;4.40;3.25;;;;;;;;;;4922720;28;20052;-84
2023/09/07 02:23:12;;;;;;;6.60;3.95;;;;;;;;;;4927274;29;20054;-84
2023/09/07 02:25:42;;;;;;;6.00;3.17;;;;;;;;;;4926845;29;20047;-84
2023/09/07 02:28:10;;;;;;;7.78;4.05;;;;;;;;;;4926904;29;20646;-84
2023/09/07 02:30:40;;;;;;;5.22;3.45;;;;;;;;;;4919027;29;20163;-84
2023/09/07 02:33:08;;;;;;;5.47;3.67;;;;;;;;;;4922002;29;20051;-84
2023/09/07 02:35:38;;;;;;;6.55;3.72;;;;;;;;;;4924042;29;20086;-84
2023/09/07 02:38:07;;;;;;;7.00;3.50;;;;;;;;;;4928046;29;20075;-84
2023/09/07 02:40:41;;;;;;;4.38;2.97;;;;;;;;;;4924741;28;20055;-84
2023/09/07 02:43:10;;;;;;;5.85;3.15;;;;;;;;;;4925317;29;20051;-84
2023/09/07 02:45:40;;;;;;;8.02;3.67;;;;;;;;;;4925206;29;20051;-84
2023/09/07 02:48:09;;;;;;;8.20;3.88;;;;;;;;;;4922831;29;20131;-84
2023/09/07 02:50:38;;;;;;;4.20;3.08;;;;;;;;;;4920856;28;20055;-84
2023/09/07 02:53:06;;;;;;;4.68;3.08;;;;;;;;;;4923805;29;20048;-84
2023/09/07 02:55:35;;;;;;;5.65;3.30;;;;;;;;;;4927563;29;20114;-84
2023/09/07 02:58:04;;;;;;;5.80;3.70;;;;;;;;;;4925107;29;20055;-84
2023/09/07 03:00:32;;;;;;;5.63;3.30;;;;;;;;;;4923557;28;20048;-84
2023/09/07 03:03:02;;;;;;;5.30;3.28;;;;;;;;;;4927247;29;20058;-84
2023/09/07 03:05:31;;;;;;;6.53;3.67;;;;;;;;;;4921787;29;20556;-84
2023/09/07 03:07:59;;;;;;;6.03;3.53;;;;;;;;;;4924472;29;20048;-84
2023/09/07 03:10:28;;;;;;;6.38;3.53;;;;;;;;;;4925913;29;20143;-84
2023/09/07 03:12:56;;;;;;;6.63;3.60;;;;;;;;;;4927730;29;20454;-84
2023/09/07 03:15:25;;;;;;;7.82;3.45;;;;;;;;;;4927149;29;20831;-84
2023/09/07 03:17:53;;;;;;;6.15;3.63;;;;;;;;;;4925135;29;20138;-84
2023/09/07 03:20:23;;;;;;;8.43;3.88;;;;;;;;;;4923629;29;20141;-84
2023/09/07 03:22:51;;;;;;;7.50;4.07;;;;;;;;;;4928065;29;20477;-84
2023/09/07 03:25:20;;;;;;;6.03;3.15;;;;;;;;;;4926811;29;20103;-84
2023/09/07 03:27:48;;;;;;;7.10;4.20;;;;;;;;;;4925815;29;20556;-84
2023/09/07 03:30:16;;;;;;;5.75;3.38;;;;;;;;;;4921376;28;20290;-84
2023/09/07 03:32:46;;;;;;;5.20;3.17;;;;;;;;;;4924818;29;20083;-84
2023/09/07 03:35:15;;;;;;;8.02;3.70;;;;;;;;;;4925345;29;20138;-84
2023/09/07 03:37:45;;;;;;;5.60;4.10;;;;;;;;;;4925705;29;20437;-84
2023/09/07 03:40:13;;;;;;;5.82;3.72;;;;;;;;;;4925995;29;20115;-84
2023/09/07 03:42:43;;;;;;;5.38;3.47;;;;;;;;;;4919645;29;20624;-84
2023/09/07 03:45:11;;;;;;;6.50;3.97;;;;;;;;;;4920989;29;20062;-84
2023/09/07 03:47:40;;;;;;;8.75;4.20;;;;;;;;;;4923203;29;20051;-84
2023/09/07 03:50:09;;;;;;;6.07;3.72;;;;;;;;;;4920375;29;20981;-84
2023/09/07 03:52:37;;;;;;;11.40;3.65;;;;;;;;;;4926268;29;20059;-84
2023/09/07 03:55:08;;;;;;;6.55;3.72;;;;;;;;;;4925656;29;20073;-84
2023/09/07 03:57:36;;;;;;;6.45;3.45;;;;;;;;;;4924959;29;20325;-84
2023/09/07 04:00:08;;;;;;;6.03;3.45;;;;;;;;;;4925786;28;20130;-84
2023/09/07 04:02:36;;;;;;;8.15;3.30;;;;;;;;;;4925879;29;20051;-84
2023/09/07 04:05:06;;;;;;;4.78;3.15;;;;;;;;;;4924216;29;20055;-84
2023/09/07 04:07:34;;;;;;;6.78;3.50;;;;;;;;;;4924387;29;20318;-84
2023/09/07 04:10:03;;;;;;;6.53;3.65;;;;;;;;;;4925006;28;20039;-84
2023/09/07 04:12:33;;;;;;;6.22;3.47;;;;;;;;;;4925724;29;20497;-84
2023/09/07 04:15:02;;;;;;;7.05;3.83;;;;;;;;;;4927208;29;20524;-84
2023/09/07 04:17:39;;;;;;;6.90;3.95;;;;;;;;;;4924809;29;20052;-84
2023/09/07 04:20:08;;;;;;;8.40;4.00;;;;;;;;;;4924925;29;20064;-84
2023/09/07 04:22:37;;;;;;;7.00;3.90;;;;;;;;;;4922064;29;20048;-84
2023/09/07 04:25:06;;;;;;;4.72;3.45;;;;;;;;;;4923252;29;20241;-84
2023/09/07 04:27:35;;;;;;;6.20;3.65;;;;;;;;;;4927028;29;20142;-84
2023/09/07 04:30:06;;;;;;;6.28;3.53;;;;;;;;;;4923704;28;20070;-84
2023/09/07 04:32:35;;;;;;;7.03;3.95;;;;;;;;;;4924307;29;20114;-84
2023/09/07 04:35:03;;;;;;;7.05;3.63;;;;;;;;;;4922125;29;20134;-84
2023/09/07 04:37:32;;;;;;;7.75;4.10;;;;;;;;;;4925420;29;20138;-84
2023/09/07 04:40:00;;;;;;;8.38;4.00;;;;;;;;;;4925340;28;20059;-84
2023/09/07 04:42:29;;;;;;;7.38;4.05;;;;;;;;;;4923322;29;20162;-84
2023/09/07 04:44:59;;;;;;;5.30;3.67;;;;;;;;;;4923860;29;20055;-84
2023/09/07 04:47:27;;;;;;;6.72;4.05;;;;;;;;;;4923223;29;20565;-84
2023/09/07 04:49:55;;;;;;;7.82;4.00;;;;;;;;;;4919249;28;20047;-84
2023/09/07 04:52:24;;;;;;;8.60;4.28;;;;;;;;;;4924460;29;20422;-86
2023/09/07 04:54:52;;;;;;;5.57;3.63;;;;;;;;;;4924250;29;20051;-84
2023/09/07 04:57:20;;;;;;;7.65;3.88;;;;;;;;;;4924881;29;20115;-85
2023/09/07 04:59:49;;;;;;;7.68;3.90;;;;;;;;;;4922685;29;20040;-85
2023/09/07 05:02:19;;;;;;;8.20;4.68;;;;;;;;;;4923786;29;20043;-85
2023/09/07 05:04:47;;;;;;;9.23;4.57;;;;;;;;;;4922721;29;20616;-85
2023/09/07 05:07:15;;;;;;;7.95;4.50;;;;;;;;;;4921228;29;20075;-85
2023/09/07 05:09:44;;;;;;;7.25;3.78;;;;;;;;;;4923247;28;20059;-85
2023/09/07 05:12:14;;;;;;;7.75;3.83;;;;;;;;;;4922059;29;20709;-84
2023/09/07 05:14:42;;;;;;;6.20;4.13;;;;;;;;;;4922303;29;20047;-85
2023/09/07 05:17:11;;;;;;;7.70;3.88;;;;;;;;;;4920339;29;20724;-85
2023/09/07 05:19:41;;;;;;;6.82;4.22;;;;;;;;;;4921054;28;20118;-85
2023/09/07 05:22:11;;;;;;;8.30;4.05;;;;;;;;;;4918707;29;20537;-84
2023/09/07 05:24:40;;;;;;;10.40;4.22;;;;;;;;;;4926026;29;20074;-85
2023/09/07 05:27:10;;;;;;;6.88;4.55;;;;;;;;;;4923037;28;20054;-84
2023/09/07 05:29:39;;;;;;;8.18;3.92;;;;;;;;;;4926199;28;20043;-86
2023/09/07 05:32:09;;;;;;;7.85;4.07;;;;;;;;;;4923544;29;20067;-85
2023/09/07 05:34:37;;;;;;;7.38;4.45;;;;;;;;;;4924110;29;20087;-85
2023/09/07 05:37:07;;;;;;;6.22;4.13;;;;;;;;;;4923499;29;20132;-85
2023/09/07 05:39:36;;;;;;;7.43;4.75;;;;;;;;;;4923401;29;20052;-86
2023/09/07 05:42:04;;;;;;;7.13;3.92;;;;;;;;;;4923575;29;20102;-85
2023/09/07 05:44:32;;;;;;;7.80;4.20;;;;;;;;;;4922151;29;20063;-84
2023/09/07 05:47:02;;;;;;;10.13;4.28;;;;;;;;;;4916425;29;20056;-84
2023/09/07 05:49:30;;;;;;;8.70;4.10;;;;;;;;;;4920978;28;20051;-85
2023/09/07 05:51:59;;;;;;;7.95;3.90;;;;;;;;;;4923881;29;20047;-86
2023/09/07 05:54:29;;;;;;;7.55;3.72;;;;;;;;;;4924281;29;20244;-86
2023/09/07 05:56:57;;;;;;;9.27;4.05;;;;;;;;;;4916432;29;20142;-86
2023/09/07 05:59:25;;;;;;;6.97;3.55;;;;;;;;;;4920552;28;20068;-85
2023/09/07 06:01:54;;;;;;;6.68;3.80;;;;;;;;;;4923956;29;20039;-85
2023/09/07 06:04:22;;;;;;;6.78;4.00;;;;;;;;;;4919782;29;20039;-85
2023/09/07 06:06:51;;;;;;;6.55;3.72;;;;;;;;;;4925064;29;20054;-85
2023/09/07 06:09:20;;;;;;;6.68;3.58;;;;;;;;;;4924856;29;20576;-85
2023/09/07 06:11:50;;;;;;;7.63;4.07;;;;;;;;;;4924225;28;20055;-86
2023/09/07 06:14:18;;;;;;;7.78;3.63;;;;;;;;;;4922402;29;20063;-85
2023/09/07 06:16:46;;;;;;;8.18;4.20;;;;;;;;;;4929393;29;20055;-85
2023/09/07 06:19:15;;;;;;;9.30;4.47;;;;;;;;;;4927750;29;20159;-85
2023/09/07 06:21:43;;;;;;;8.82;3.53;;;;;;;;;;4922016;28;20043;-85
2023/09/07 06:24:12;;;;;;;6.43;3.90;;;;;;;;;;4927894;29;20063;-85
2023/09/07 06:26:40;;;;;;;7.82;3.92;;;;;;;;;;4928929;29;20541;-85
2023/09/07 06:29:10;;;;;;;7.25;3.88;;;;;;;;;;4928869;29;20505;-85
2023/09/07 06:31:38;;;;;;;5.38;3.70;;;;;;;;;;4927752;28;20056;-86
2023/09/07 06:34:07;;;;;;;6.80;3.95;;;;;;;;;;4925291;29;20103;-85
2023/09/07 06:36:36;;;;;;;7.05;4.32;;;;;;;;;;4924750;29;20048;-85
2023/09/07 06:39:15;;;;;;;8.45;4.43;;;;;;;;;;4921209;29;20128;-85
2023/09/07 06:41:45;;;;;;;7.47;4.45;;;;;;;;;;4925765;28;20478;-84
2023/09/07 06:44:15;;;;;;;9.68;4.82;;;;;;;;;;4922210;29;20470;-85
2023/09/07 06:46:44;;;;;;;10.13;5.28;;;;;;;;;;4927464;29;20063;-85
2023/09/07 06:49:12;;;;;;;13.00;6.65;;;;;;;;;;4920095;29;20075;-85
2023/09/07 06:51:41;;;;;;;10.15;5.18;;;;;;;;;;4922767;28;20513;-85
2023/09/07 06:54:09;;;;;;;11.75;5.80;;;;;;;;;;4927133;29;20040;-85
2023/09/07 06:56:38;;;;;;;9.80;5.78;;;;;;;;;;4927316;29;20044;-84
2023/09/07 06:59:06;;;;;;;7.45;5.20;;;;;;;;;;4927070;29;20421;-84
2023/09/07 07:01:36;;;;;;;13.05;6.45;;;;;;;;;;4926338;28;20091;-84
2023/09/07 07:04:06;;;;;;;10.20;6.35;;;;;;;;;;4924951;29;20126;-84
2023/09/07 07:06:35;;;;;;;9.32;6.00;;;;;;;;;;4923293;29;20070;-84
2023/09/07 07:09:03;;;;;;;16.48;6.20;;;;;;;;;;4926233;29;20047;-84
2023/09/07 07:11:32;;;;;;;12.27;6.57;;;;;;;;;;4923956;28;20063;-84
2023/09/07 07:14:00;;;;;;;10.77;5.88;;;;;;;;;;4927467;29;20051;-84
2023/09/07 07:16:29;;;;;;;13.50;5.72;;;;;;;;;;4922575;29;20048;-83
2023/09/07 07:18:58;;;;;;;12.48;6.53;;;;;;;;;;4921362;29;20087;-83
2023/09/07 07:21:27;;;;;;;12.00;6.68;;;;;;;;;;4926997;28;20056;-84
2023/09/07 07:23:55;;;;;;;11.52;6.82;;;;;;;;;;4926660;29;20052;-85
2023/09/07 07:26:24;;;;;;;10.35;6.57;;;;;;;;;;4923312;29;20083;-85
2023/09/07 07:28:52;;;;;;;12.60;6.85;;;;;;;;;;4925627;29;20095;-84
2023/09/07 07:31:21;;;;;;;17.77;6.70;;;;;;;;;;4924674;28;20043;-85
2023/09/07 07:33:49;;;;;;;12.48;7.25;;;;;;;;;;4925709;29;20593;-86
2023/09/07 07:36:20;;;;;;;14.23;7.07;;;;;;;;;;4924787;29;20052;-86
2023/09/07 07:38:49;;;;;;;13.38;6.32;;;;;;;;;;4920793;29;20485;-86
2023/09/07 07:41:18;;;;;;;10.50;6.30;;;;;;;;;;4922260;28;20529;-85
2023/09/07 07:43:46;;;;;;;15.57;7.20;;;;;;;;;;4925556;29;20489;-85
2023/09/07 07:46:15;;;;;;;9.80;5.85;;;;;;;;;;4926235;29;20715;-85
2023/09/07 07:48:44;;;;;;;11.85;6.07;;;;;;;;;;4923596;29;20145;-85
2023/09/07 07:51:13;;;;;;;12.60;6.68;;;;;;;;;;4924155;28;20450;-85
2023/09/07 07:53:42;;;;;;;13.32;6.93;;;;;;;;;;4927147;29;20061;-87
2023/09/07 07:56:16;;;;;;;10.10;5.75;;;;;;;;;;4926270;29;20075;-87
2023/09/07 07:58:45;;;;;;;9.40;5.90;;;;;;;;;;4926342;29;20044;-87
2023/09/07 08:01:17;;;;;;;11.60;5.68;;;;;;;;;;4923862;29;20454;-88
2023/09/07 08:03:46;;;;;;;12.15;5.95;;;;;;;;;;4925591;29;20048;-87
2023/09/07 08:06:15;;;;;;;13.48;6.43;;;;;;;;;;4924874;29;20058;-88
2023/09/07 08:08:44;;;;;;;12.85;6.63;;;;;;;;;;4917147;29;20052;-85
2023/09/07 08:11:14;;;;;;;16.10;6.53;;;;;;;;;;4922887;29;20130;-86
2023/09/07 08:13:46;;;;;;;13.48;5.47;;;;;;;;;;4925610;29;20079;-88
2023/09/07 08:16:15;;;;;;;9.90;6.15;;;;;;;;;;4925353;29;20051;-87
2023/09/07 08:18:43;;;;;;;10.60;5.97;;;;;;;;;;4924544;29;20055;-88
2023/09/07 08:21:14;;;;;;;14.55;6.53;;;;;;;;;;4926216;28;20528;-88
2023/09/07 08:23:42;;;;;;;10.93;6.28;;;;;;;;;;4924257;29;20043;-87
2023/09/07 08:26:14;;;;;;;12.55;5.85;;;;;;;;;;4922645;29;20518;-87
2023/09/07 08:28:46;;;;;;;12.93;5.45;;;;;;;;;;4921759;29;20051;-85
2023/09/07 08:31:20;;;;;;;10.85;6.28;;;;;;;;;;4920455;28;20069;-88
2023/09/07 08:33:50;;;;;;;11.10;5.80;;;;;;;;;;4922634;29;20059;-86
2023/09/07 08:36:22;;;;;;;8.50;5.57;;;;;;;;;;4924529;29;20043;-86
2023/09/07 08:38:53;;;;;;;11.57;6.50;;;;;;;;;;4923719;29;20513;-88
2023/09/07 08:41:24;;;;;;;9.02;5.07;;;;;;;;;;4921762;28;20058;-87
2023/09/07 08:43:55;;;;;;;14.02;5.80;;;;;;;;;;4922789;29;20082;-87
2023/09/07 08:46:24;;;;;;;10.90;5.80;;;;;;;;;;4922459;29;20134;-85
2023/09/07 08:48:55;;;;;;;8.27;5.22;;;;;;;;;;4922667;29;20529;-86
2023/09/07 08:51:27;;;;;;;9.18;5.60;;;;;;;;;;4920166;29;20529;-86
2023/09/07 08:53:56;;;;;;;11.20;5.35;;;;;;;;;;4920472;29;20043;-86
2023/09/07 08:56:27;;;;;;;11.30;5.82;;;;;;;;;;4922438;29;20123;-87
2023/09/07 08:58:56;;;;;;;10.35;6.10;;;;;;;;;;4924186;29;20051;-87
2023/09/07 09:01:24;;;;;;;6.93;4.65;;;;;;;;;;4924076;28;20051;-89
2023/09/07 09:03:53;;;;;;;8.90;4.55;;;;;;;;;;4926931;29;20541;-87
2023/09/07 09:06:23;;;;;;;10.07;5.93;;;;;;;;;;4920941;29;20150;-87
2023/09/07 09:08:54;;;;;;;11.05;5.20;;;;;;;;;;4927426;29;20069;-88
2023/09/07 09:11:24;;;;;;;8.52;5.38;;;;;;;;;;4927985;28;20146;-88
2023/09/07 09:13:54;;;;;;;10.57;6.53;;;;;;;;;;4919462;29;20071;-86
2023/09/07 09:16:23;;;;;;;9.35;6.30;;;;;;;;;;4926160;29;20079;-85
2023/09/07 09:18:52;;;;;;;11.48;6.10;;;;;;;;;;4924259;29;20055;-88
2023/09/07 09:21:21;;;;;;;9.95;6.30;;;;;;;;;;4924498;29;20433;-91
2023/09/07 09:23:50;;;;;;;7.28;5.07;;;;;;;;;;4924609;29;20047;-89
2023/09/07 09:26:19;;;;;;;7.35;5.05;;;;;;;;;;4925808;29;20079;-90
2023/09/07 09:28:50;;;;;;;7.78;4.60;;;;;;;;;;4922055;29;20043;-90
2023/09/07 09:31:20;;;;;;;9.55;5.47;;;;;;;;;;4920161;28;20048;-90
2023/09/07 09:33:51;;;;;;;9.70;5.55;;;;;;;;;;4924433;29;20039;-90
2023/09/07 09:36:19;;;;;;;8.50;4.47;;;;;;;;;;4924850;29;20047;-90
2023/09/07 09:38:49;;;;;;;12.98;5.57;;;;;;;;;;4923276;29;20082;-89
2023/09/07 09:41:18;;;;;;;7.60;4.75;;;;;;;;;;4925791;28;20059;-90
2023/09/07 09:43:49;;;;;;;6.85;4.70;;;;;;;;;;4928665;29;20063;-90
2023/09/07 09:46:18;;;;;;;8.77;5.03;;;;;;;;;;4928838;29;20059;-91
2023/09/07 09:48:49;;;;;;;8.52;4.88;;;;;;;;;;4927102;29;20051;-91
2023/09/07 09:51:17;;;;;;;7.95;4.97;;;;;;;;;;4927397;28;20059;-88
2023/09/07 09:53:46;;;;;;;7.43;4.90;;;;;;;;;;4929230;29;20036;-89
2023/09/07 09:56:15;;;;;;;6.60;4.53;;;;;;;;;;4927099;29;20450;-89
2023/09/07 09:58:43;;;;;;;5.90;4.57;;;;;;;;;;4926749;29;20086;-87
2023/09/07 10:01:14;;;;;;;6.45;4.43;;;;;;;;;;4927516;28;20535;-90
2023/09/07 10:03:45;;;;;;;7.28;4.40;;;;;;;;;;4927256;29;20043;-91
2023/09/07 10:06:21;;;;;;;9.95;4.40;;;;;;;;;;4922935;29;20071;-92
2023/09/07 10:09:00;;;;;;;5.93;4.18;;;;;;;;;;4927639;29;20481;-88
2023/09/07 10:11:29;;;;;;;8.35;4.90;;;;;;;;;;4921782;28;20048;-93
2023/09/07 10:14:03;;;;;;;6.47;4.22;;;;;;;;;;4923329;29;20540;-89
2023/09/07 10:16:42;;;;;;;4.95;4.00;;;;;;;;;;4921758;29;20039;-91
2023/09/07 10:19:17;;;;;;;6.50;4.45;;;;;;;;;;4918830;29;20494;-90
2023/09/07 10:21:47;;;;;;;6.25;4.40;;;;;;;;;;4922077;29;20047;-89
2023/09/07 10:24:25;;;;;;;9.02;5.00;;;;;;;;;;4924747;29;20048;-89
2023/09/07 10:27:01;;;;;;;6.22;4.57;;;;;;;;;;4923796;29;20051;-87
2023/09/07 10:29:29;;;;;;;5.38;4.10;;;;;;;;;;4926810;29;20429;-88
2023/09/07 10:32:06;;;;;;;6.28;4.47;;;;;;;;;;4929060;29;20079;-88
2023/09/07 10:34:39;;;;;;;7.43;4.72;;;;;;;;;;4927753;29;20552;-93
2023/09/07 10:37:10;;;;;;;6.13;3.95;;;;;;;;;;4919955;29;20076;-89
2023/09/07 10:39:40;;;;;;;7.40;4.32;;;;;;;;;;4924410;28;20054;-91
2023/09/07 10:42:08;;;;;;;8.23;4.22;;;;;;;;;;4927288;29;20052;-89
2023/09/07 10:44:37;;;;;;;5.60;3.78;;;;;;;;;;4926773;29;20059;-89
2023/09/07 10:47:05;;;;;;;8.85;4.00;;;;;;;;;;4922651;29;20047;-88
2023/09/07 10:49:34;;;;;;;6.47;3.70;;;;;;;;;;4927982;29;20056;-89
2023/09/07 10:52:04;;;;;;;5.65;3.78;;;;;;;;;;4922361;29;20115;-89
2023/09/07 10:54:33;;;;;;;4.85;3.58;;;;;;;;;;4924659;29;20059;-89
2023/09/07 10:57:09;;;;;;;6.35;4.18;;;;;;;;;;4927430;29;20433;-88
2023/09/07 10:59:37;;;;;;;5.03;3.72;;;;;;;;;;4920995;28;20051;-94
2023/09/07 11:02:06;;;;;;;5.35;4.13;;;;;;;;;;4925172;29;20552;-90
2023/09/07 11:04:36;;;;;;;6.22;4.00;;;;;;;;;;4928254;29;20059;-89
2023/09/07 11:07:05;;;;;;;5.72;3.90;;;;;;;;;;4922116;29;20055;-90
2023/09/07 11:09:35;;;;;;;7.20;3.95;;;;;;;;;;4927068;29;20418;-89
2023/09/07 11:12:08;;;;;;;5.85;4.10;;;;;;;;;;4927376;29;20043;-91
2023/09/07 11:14:36;;;;;;;5.30;4.15;;;;;;;;;;4919007;29;20055;-86
2023/09/07 11:17:05;;;;;;;6.70;3.90;;;;;;;;;;4925358;29;20153;-87
2023/09/07 11:19:34;;;;;;;7.07;4.18;;;;;;;;;;4924283;29;20056;-95
2023/09/07 11:22:04;;;;;;;9.55;4.43;;;;;;;;;;4927946;29;20094;-87
2023/09/07 11:24:36;;;;;;;8.20;4.47;;;;;;;;;;4926449;29;20151;-87
2023/09/07 11:27:04;;;;;;;6.80;3.58;;;;;;;;;;4927580;29;20064;-87
2023/09/07 11:29:33;;;;;;;5.03;3.90;;;;;;;;;;4924495;29;20138;-87
2023/09/07 11:32:08;;;;;;;8.30;3.63;;;;;;;;;;4927621;29;20115;-88
2023/09/07 11:34:37;;;;;;;6.35;3.72;;;;;;;;;;4926056;29;20405;-91
2023/09/07 11:37:06;;;;;;;6.15;4.35;;;;;;;;;;4923372;29;20044;-90
2023/09/07 11:39:35;;;;;;;4.63;3.65;;;;;;;;;;4924342;28;20055;-86
2023/09/07 11:42:04;;;;;;;4.68;3.20;;;;;;;;;;4923856;29;20099;-87
2023/09/07 11:44:33;;;;;;;7.80;4.00;;;;;;;;;;4925724;29;20044;-87
2023/09/07 11:47:01;;;;;;;5.55;3.95;;;;;;;;;;4932599;29;20052;-89
2023/09/07 11:49:31;;;;;;;4.50;3.72;;;;;;;;;;4932524;28;20054;-89
2023/09/07 11:52:00;;;;;;;3.90;3.28;;;;;;;;;;4928594;29;20478;-90
2023/09/07 11:54:28;;;;;;;3.78;3.00;;;;;;;;;;4931437;29;20099;-90
2023/09/07 11:56:58;;;;;;;5.95;3.53;;;;;;;;;;4926077;29;20058;-87
2023/09/07 11:59:28;;;;;;;5.30;4.05;;;;;;;;;;4929204;29;20122;-89
2023/09/07 12:02:02;;;;;;;8.02;3.47;;;;;;;;;;4925117;29;20048;-89
2023/09/07 12:04:31;;;;;;;5.80;3.60;;;;;;;;;;4926121;29;20043;-87
2023/09/07 12:07:00;;;;;;;4.80;3.50;;;;;;;;;;4919600;29;20044;-89
2023/09/07 12:09:28;;;;;;;4.25;3.25;;;;;;;;;;4922510;28;20052;-88
2023/09/07 12:11:58;;;;;;;7.07;3.60;;;;;;;;;;4922642;29;21579;-87
2023/09/07 12:14:27;;;;;;;5.22;3.75;;;;;;;;;;4925393;29;20098;-88
2023/09/07 12:16:55;;;;;;;4.50;3.20;;;;;;;;;;4924795;29;20047;-89
2023/09/07 12:19:24;;;;;;;5.05;3.38;;;;;;;;;;4922011;29;20062;-88
2023/09/07 12:21:53;;;;;;;5.85;3.60;;;;;;;;;;4924386;29;20107;-87
2023/09/07 12:24:22;;;;;;;4.68;3.58;;;;;;;;;;4928320;29;20067;-87
2023/09/07 12:26:51;;;;;;;5.75;3.75;;;;;;;;;;4925539;29;20054;-87
2023/09/07 12:29:21;;;;;;;5.35;3.45;;;;;;;;;;4924444;29;20055;-95
2023/09/07 12:31:50;;;;;;;10.15;3.28;;;;;;;;;;4923003;29;20052;-88
2023/09/07 12:34:18;;;;;;;3.92;3.25;;;;;;;;;;4919827;29;20052;-87
2023/09/07 12:36:47;;;;;;;6.80;3.78;;;;;;;;;;4926502;29;20048;-91
2023/09/07 12:39:16;;;;;;;5.05;3.60;;;;;;;;;;4923052;28;20300;-87
2023/09/07 12:41:44;;;;;;;6.38;3.38;;;;;;;;;;4930869;28;20047;-87
2023/09/07 12:44:13;;;;;;;8.02;3.47;;;;;;;;;;4934346;29;20047;-87
2023/09/07 12:46:42;;;;;;;4.20;2.70;;;;;;;;;;4930747;29;20064;-89
2023/09/07 12:49:11;;;;;;;8.20;3.10;;;;;;;;;;4929605;29;20051;-91
2023/09/07 12:51:40;;;;;;;7.60;3.00;;;;;;;;;;4923329;29;20134;-90
2023/09/07 12:54:08;;;;;;;4.85;2.97;;;;;;;;;;4931991;29;20043;-85
2023/09/07 12:56:37;;;;;;;4.15;3.25;;;;;;;;;;4927052;29;20060;-87
2023/09/07 12:59:08;;;;;;;5.07;3.00;;;;;;;;;;4927247;29;20044;-88
2023/09/07 13:01:37;;;;;;;5.63;3.28;;;;;;;;;;4932659;28;20588;-91
2023/09/07 13:04:11;;;;;;;5.68;3.35;;;;;;;;;;4933045;29;20054;-92
2023/09/07 13:06:39;;;;;;;4.85;3.00;;;;;;;;;;4933565;29;20051;-88
2023/09/07 13:09:09;;;;;;;3.30;2.80;;;;;;;;;;4933664;29;20050;-87
2023/09/07 13:11:39;;;;;;;3.78;2.75;;;;;;;;;;4930376;28;20342;-88
2023/09/07 13:14:08;;;;;;;4.20;2.90;;;;;;;;;;4930178;29;20046;-89
2023/09/07 13:16:39;;;;;;;4.72;2.83;;;;;;;;;;4930198;29;20067;-85
2023/09/07 13:19:08;;;;;;;4.38;2.83;;;;;;;;;;4931089;29;20557;-86
2023/09/07 13:21:38;;;;;;;4.40;2.90;;;;;;;;;;4927386;28;20117;-89
2023/09/07 13:24:06;;;;;;;5.88;2.67;;;;;;;;;;4929959;29;20066;-89
2023/09/07 13:26:34;;;;;;;3.65;2.50;;;;;;;;;;4929940;29;20505;-88
2023/09/07 13:29:03;;;;;;;4.28;2.58;;;;;;;;;;4929215;29;20051;-87
2023/09/07 13:31:32;;;;;;;4.43;2.80;;;;;;;;;;4922916;28;20129;-92
2023/09/07 13:34:00;;;;;;;3.03;2.45;;;;;;;;;;4925158;29;20060;-87
2023/09/07 13:36:29;;;;;;;3.35;2.63;;;;;;;;;;4929918;29;20050;-87
2023/09/07 13:38:59;;;;;;;3.85;2.33;;;;;;;;;;4926548;29;20059;-87
2023/09/07 13:41:27;;;;;;;7.63;2.88;;;;;;;;;;4929764;28;20047;-88
2023/09/07 13:43:56;;;;;;;3.83;2.70;;;;;;;;;;4928056;29;20048;-87
2023/09/07 13:46:25;;;;;;;3.97;2.75;;;;;;;;;;4930531;29;20040;-90
2023/09/07 13:48:54;;;;;;;4.55;2.90;;;;;;;;;;4929604;29;20039;-90
2023/09/07 13:51:22;;;;;;;3.45;2.63;;;;;;;;;;4929640;28;20047;-87
2023/09/07 13:53:51;;;;;;;3.40;2.25;;;;;;;;;;4933307;29;20055;-92
2023/09/07 13:56:21;;;;;;;3.67;2.83;;;;;;;;;;4935246;29;20044;-88
2023/09/07 13:58:49;;;;;;;7.75;2.65;;;;;;;;;;4931077;29;20048;-86
2023/09/07 14:01:18;;;;;;;3.90;2.67;;;;;;;;;;4928498;28;20054;-86
2023/09/07 14:03:46;;;;;;;5.07;2.55;;;;;;;;;;4926689;29;20476;-87
2023/09/07 14:06:15;;;;;;;2.95;2.28;;;;;;;;;;4935766;29;20260;-88
2023/09/07 14:08:43;;;;;;;4.22;2.80;;;;;;;;;;4932770;29;20059;-88
2023/09/07 14:11:12;;;;;;;4.28;2.65;;;;;;;;;;4930149;28;20413;-87
2023/09/07 14:13:42;;;;;;;4.82;2.60;;;;;;;;;;4931199;29;20058;-89
2023/09/07 14:16:10;;;;;;;6.47;2.72;;;;;;;;;;4932426;29;20130;-89
2023/09/07 14:18:39;;;;;;;5.40;2.90;;;;;;;;;;4926540;29;20048;-88
2023/09/07 14:21:07;;;;;;;5.15;2.67;;;;;;;;;;4925936;29;20062;-92
2023/09/07 14:23:37;;;;;;;3.75;2.40;;;;;;;;;;4929690;29;20052;-92
2023/09/07 14:26:05;;;;;;;5.53;2.53;;;;;;;;;;4929492;29;20485;-90
2023/09/07 14:28:34;;;;;;;5.18;2.50;;;;;;;;;;4926832;29;20060;-89
2023/09/07 14:31:06;;;;;;;5.22;2.20;;;;;;;;;;4925586;28;20070;-88
2023/09/07 14:33:38;;;;;;;3.78;2.58;;;;;;;;;;4925390;29;20114;-92
2023/09/07 14:36:07;;;;;;;4.70;2.80;;;;;;;;;;4926651;29;20062;-91
2023/09/07 14:38:40;;;;;;;5.30;2.85;;;;;;;;;;4927941;29;20485;-87
2023/09/07 14:41:11;;;;;;;4.20;2.50;;;;;;;;;;4927387;28;20106;-90
2023/09/07 14:43:40;;;;;;;4.13;2.42;;;;;;;;;;4928728;29;20146;-89
2023/09/07 14:46:10;;;;;;;3.53;2.42;;;;;;;;;;4927106;29;20047;-89
2023/09/07 14:48:38;;;;;;;3.58;2.45;;;;;;;;;;4930662;29;20048;-89
2023/09/07 14:51:07;;;;;;;3.42;2.60;;;;;;;;;;4931107;28;20066;-92
2023/09/07 14:53:35;;;;;;;5.45;2.90;;;;;;;;;;4930826;29;20548;-89
2023/09/07 14:56:04;;;;;;;4.47;2.58;;;;;;;;;;4925980;29;20044;-88